SHT19Q EGPD-EGLL
Flight info
| Callsign | SHT19Q |
|---|---|
| Flight time | N/A |
| Altitude | 38000 |
| Route | EPCAN DCT NEXUS DCT RIBEL DCT NUGRA |
| Aircraft | A320/M-SDE3FGHIRWY/LB1 |
Departure
| Time | N/A |
|---|---|
| Airport | Aberdeen International Airport (EGPD) |
Arrival
| Time | 2026-05-03 21:49 |
|---|---|
| Airport | London Heathrow Airport (EGLL) |
| Time | Latitude | Longitude | Altitude | Speed | Heading |
|---|---|---|---|---|---|
| 2026-05-03 21:35 | 51.78142 | -0.72877 | 11112 ft | 264 kts | 119° |
| 2026-05-03 21:36 | 51.77343 | -0.70284 | 10918 ft | 259 kts | 119° |
| 2026-05-03 21:36 | 51.76544 | -0.67687 | 10656 ft | 258 kts | 119° |
| 2026-05-03 21:36 | 51.75745 | -0.65097 | 10389 ft | 256 kts | 119° |
| 2026-05-03 21:36 | 51.74962 | -0.62564 | 10263 ft | 249 kts | 119° |
| 2026-05-03 21:37 | 51.74271 | -0.60032 | 10060 ft | 246 kts | 111° |
| 2026-05-03 21:37 | 51.73750 | -0.57405 | 9804 ft | 245 kts | 109° |
| 2026-05-03 21:37 | 51.73260 | -0.54783 | 9525 ft | 244 kts | 109° |
| 2026-05-03 21:37 | 51.72773 | -0.52170 | 9226 ft | 242 kts | 109° |
| 2026-05-03 21:38 | 51.72288 | -0.49577 | 8941 ft | 241 kts | 109° |
| 2026-05-03 21:38 | 51.71802 | -0.46993 | 8656 ft | 240 kts | 109° |
| 2026-05-03 21:38 | 51.70785 | -0.41637 | 7986 ft | 235 kts | 109° |
| 2026-05-03 21:39 | 51.70292 | -0.39062 | 7483 ft | 234 kts | 109° |
| 2026-05-03 21:39 | 51.69809 | -0.36567 | 7043 ft | 231 kts | 109° |
| 2026-05-03 21:39 | 51.69335 | -0.34143 | 6685 ft | 223 kts | 109° |
| 2026-05-03 21:39 | 51.68870 | -0.31784 | 6319 ft | 219 kts | 109° |
| 2026-05-03 21:40 | 51.68415 | -0.29490 | 5894 ft | 217 kts | 109° |
| 2026-05-03 21:40 | 51.67870 | -0.27213 | 5448 ft | 214 kts | 117° |
| 2026-05-03 21:40 | 51.67191 | -0.25082 | 5046 ft | 212 kts | 119° |
| 2026-05-03 21:40 | 51.66506 | -0.23021 | 5014 ft | 213 kts | 119° |
| 2026-05-03 21:41 | 51.65801 | -0.20913 | 4977 ft | 212 kts | 119° |
| 2026-05-03 21:41 | 51.65038 | -0.18869 | 4421 ft | 216 kts | 128° |
| 2026-05-03 21:41 | 51.63980 | -0.17147 | 3898 ft | 216 kts | 139° |
| 2026-05-03 21:41 | 51.62810 | -0.15581 | 3490 ft | 220 kts | 141° |
| 2026-05-03 21:42 | 51.61594 | -0.14103 | 3200 ft | 218 kts | 152° |
| 2026-05-03 21:42 | 51.60161 | -0.13552 | 3070 ft | 209 kts | 177° |
| 2026-05-03 21:42 | 51.58744 | -0.13533 | 2994 ft | 198 kts | 180° |
| 2026-05-03 21:42 | 51.57384 | -0.13580 | 2998 ft | 194 kts | 181° |
| 2026-05-03 21:43 | 51.56044 | -0.13633 | 2999 ft | 191 kts | 181° |
| 2026-05-03 21:43 | 51.54718 | -0.13682 | 2980 ft | 190 kts | 181° |
| 2026-05-03 21:43 | 51.53400 | -0.13729 | 2981 ft | 190 kts | 181° |
| 2026-05-03 21:43 | 51.52106 | -0.13788 | 2976 ft | 182 kts | 185° |
| 2026-05-03 21:44 | 51.50917 | -0.14371 | 2971 ft | 179 kts | 215° |
| 2026-05-03 21:44 | 51.49971 | -0.15665 | 2979 ft | 177 kts | 224° |
| 2026-05-03 21:44 | 51.49109 | -0.17062 | 2885 ft | 177 kts | 226° |
| 2026-05-03 21:44 | 51.48300 | -0.18518 | 2795 ft | 177 kts | 237° |
| 2026-05-03 21:45 | 51.47846 | -0.20345 | 2774 ft | 178 kts | 261° |
| 2026-05-03 21:45 | 51.47799 | -0.22357 | 2777 ft | 181 kts | 270° |
| 2026-05-03 21:45 | 51.47800 | -0.24361 | 2741 ft | 179 kts | 270° |
| 2026-05-03 21:45 | 51.47798 | -0.26314 | 2602 ft | 170 kts | 270° |
| 2026-05-03 21:46 | 51.47796 | -0.28170 | 2362 ft | 165 kts | 270° |
| 2026-05-03 21:46 | 51.47794 | -0.29997 | 2042 ft | 163 kts | 270° |
| 2026-05-03 21:46 | 51.47791 | -0.31803 | 1832 ft | 159 kts | 270° |
| 2026-05-03 21:46 | 51.47788 | -0.33481 | 1720 ft | 144 kts | 270° |
| 2026-05-03 21:47 | 51.47784 | -0.35035 | 1417 ft | 135 kts | 270° |
| 2026-05-03 21:47 | 51.47785 | -0.36523 | 1105 ft | 132 kts | 270° |
| 2026-05-03 21:47 | 51.47789 | -0.37983 | 825 ft | 131 kts | 269° |
| 2026-05-03 21:47 | 51.47781 | -0.39441 | 618 ft | 130 kts | 267° |
| 2026-05-03 21:48 | 51.47774 | -0.40895 | 444 ft | 130 kts | 268° |
| 2026-05-03 21:48 | 51.47770 | -0.42341 | 261 ft | 130 kts | 269° |
| 2026-05-03 21:48 | 51.47766 | -0.43783 | 99 ft | 127 kts | 268° |
| 2026-05-03 21:48 | 51.47763 | -0.44969 | 89 ft | 83 kts | 270° |
| 2026-05-03 21:49 | 51.47760 | -0.45809 | 84 ft | 69 kts | 269° |
| 2026-05-03 21:49 | 51.47755 | -0.46465 | 92 ft | 44 kts | 266° |
| 2026-05-03 21:49 | 51.47671 | -0.46814 | 89 ft | 18 kts | 243° |
| 2026-05-03 21:49 | 51.47602 | -0.46897 | 89 ft | 10 kts | 210° |
| 2026-05-03 21:50 | 51.47582 | -0.46978 | 90 ft | 11 kts | 270° |
| 2026-05-03 21:50 | 51.47582 | -0.47122 | 86 ft | 15 kts | 269° |
| 2026-05-03 21:50 | 51.47581 | -0.47302 | 88 ft | 18 kts | 269° |
| 2026-05-03 21:50 | 51.47580 | -0.47523 | 89 ft | 22 kts | 269° |
| 2026-05-03 21:51 | 51.47580 | -0.47778 | 87 ft | 24 kts | 269° |
| 2026-05-03 21:51 | 51.47579 | -0.48035 | 87 ft | 18 kts | 269° |
| 2026-05-03 21:51 | 51.47578 | -0.48173 | 90 ft | 13 kts | 270° |
| 2026-05-03 21:51 | 51.47577 | -0.48359 | 86 ft | 19 kts | 269° |
| 2026-05-03 21:52 | 51.47577 | -0.48590 | 86 ft | 22 kts | 270° |
| 2026-05-03 21:52 | 51.47576 | -0.48835 | 86 ft | 14 kts | 270° |
| 2026-05-03 21:52 | 51.47541 | -0.48958 | 86 ft | 11 kts | 186° |
| 2026-05-03 21:52 | 51.47471 | -0.48953 | 88 ft | 10 kts | 181° |
| 2026-05-03 21:53 | 51.47433 | -0.48953 | 86 ft | 4 kts | 180° |
| 2026-05-03 21:53 | 51.47420 | -0.48953 | 87 ft | 1 kts | 180° |
| 2026-05-03 21:53 | 51.47417 | -0.48953 | 88 ft | 0 kts | 180° |